Time;durP1;ratioP1;P1;durP2;ratioP2;P2;SDS_P1;SDS_P2;PMS_P1;PMS_P2;Temp;Humidity;BMP_temperature;BMP_pressure;BME280_temperature;BME280_humidity;BME280_pressure;Samples;Min_cycle;Max_cycle;Signal;HPM_P1;HPM_P2
2022/10/21 00:01:20;;;;;;;0.80;0.43;;;;;;;;;;5092555;28;20055;-67
2022/10/21 00:03:51;;;;;;;0.55;0.35;;;;;;;;;;5092254;28;20058;-67
2022/10/21 00:06:21;;;;;;;0.63;0.40;;;;;;;;;;5058475;28;20522;-67
2022/10/21 00:08:51;;;;;;;1.67;0.40;;;;;;;;;;5043001;28;20079;-68
2022/10/21 00:11:21;;;;;;;0.47;0.40;;;;;;;;;;5103161;28;20059;-67
2022/10/21 00:13:51;;;;;;;1.33;0.57;;;;;;;;;;5095821;28;20411;-67
2022/10/21 00:16:23;;;;;;;1.50;0.40;;;;;;;;;;5115200;28;20051;-67
2022/10/21 00:18:54;;;;;;;2.20;0.43;;;;;;;;;;5114817;28;20043;-67
2022/10/21 00:21:25;;;;;;;1.17;0.32;;;;;;;;;;5114806;28;20399;-67
2022/10/21 00:23:56;;;;;;;0.82;0.70;;;;;;;;;;5091686;28;20055;-67
2022/10/21 00:26:26;;;;;;;2.97;0.70;;;;;;;;;;5041873;28;20059;-67
2022/10/21 00:28:57;;;;;;;3.42;0.80;;;;;;;;;;5041866;28;20059;-67
2022/10/21 00:31:29;;;;;;;8.13;2.22;;;;;;;;;;5071258;28;20404;-67
2022/10/21 00:34:00;;;;;;;2.17;0.75;;;;;;;;;;5023020;28;20053;-67
2022/10/21 00:36:30;;;;;;;1.73;0.68;;;;;;;;;;5038019;28;20057;-67
2022/10/21 00:39:00;;;;;;;0.88;0.60;;;;;;;;;;5071463;28;20056;-67
2022/10/21 00:41:31;;;;;;;2.13;0.43;;;;;;;;;;5022830;28;20520;-68
2022/10/21 00:44:07;;;;;;;6.53;0.95;;;;;;;;;;5021417;28;20064;-67
2022/10/21 00:46:42;;;;;;;2.17;0.73;;;;;;;;;;5071315;28;20051;-67
2022/10/21 00:49:43;;;;;;;4.72;0.85;;;;;;;;;;5071097;28;20048;-67
2022/10/21 00:52:17;;;;;;;2.22;0.80;;;;;;;;;;5038017;28;20179;-67
2022/10/21 00:54:51;;;;;;;1.38;0.50;;;;;;;;;;5070960;28;20119;-67
2022/10/21 00:57:24;;;;;;;0.88;0.52;;;;;;;;;;5024311;28;20075;-67
2022/10/21 00:59:59;;;;;;;3.08;0.63;;;;;;;;;;5038045;28;20055;-67
2022/10/21 01:02:30;;;;;;;3.83;0.88;;;;;;;;;;5050610;28;20060;-67
2022/10/21 01:05:02;;;;;;;2.40;0.85;;;;;;;;;;5050720;28;20056;-67
2022/10/21 01:07:33;;;;;;;3.53;0.77;;;;;;;;;;4991762;28;20525;-67
2022/10/21 01:10:08;;;;;;;0.70;0.43;;;;;;;;;;5011373;28;20065;-67
2022/10/21 01:12:48;;;;;;;1.45;0.52;;;;;;;;;;4978404;28;20058;-67
2022/10/21 01:15:39;;;;;;;2.42;0.70;;;;;;;;;;5010878;28;20058;-68
2022/10/21 01:18:34;;;;;;;2.00;0.47;;;;;;;;;;5010933;28;20592;-68
2022/10/21 01:21:06;;;;;;;2.55;0.65;;;;;;;;;;4974687;28;20054;-67
2022/10/21 01:24:02;;;;;;;3.45;0.63;;;;;;;;;;4991471;28;20462;-67
2022/10/21 01:26:44;;;;;;;3.55;0.52;;;;;;;;;;4990914;28;20054;-68
2022/10/21 01:29:36;;;;;;;1.60;0.60;;;;;;;;;;4991281;28;20058;-67
2022/10/21 01:32:31;;;;;;;1.88;0.55;;;;;;;;;;4975183;28;20065;-67
2022/10/21 01:35:20;;;;;;;0.85;0.38;;;;;;;;;;4990913;28;20042;-67
2022/10/21 01:38:11;;;;;;;3.25;0.55;;;;;;;;;;4978594;28;20062;-67
2022/10/21 01:40:50;;;;;;;1.20;0.55;;;;;;;;;;4980484;28;20100;-68
2022/10/21 01:43:52;;;;;;;1.70;0.63;;;;;;;;;;4990776;28;20057;-67
2022/10/21 01:46:47;;;;;;;3.20;0.52;;;;;;;;;;4970775;28;20131;-67
2022/10/21 01:49:41;;;;;;;1.23;0.43;;;;;;;;;;4955268;28;20055;-67
2022/10/21 01:52:13;;;;;;;1.00;0.50;;;;;;;;;;4956151;28;20066;-67
2022/10/21 01:54:47;;;;;;;2.13;0.40;;;;;;;;;;4971335;28;20063;-67
2022/10/21 01:57:20;;;;;;;2.15;0.50;;;;;;;;;;4975689;28;20073;-67
2022/10/21 01:59:51;;;;;;;1.17;0.52;;;;;;;;;;4994205;28;20061;-68
2022/10/21 02:02:26;;;;;;;1.00;0.57;;;;;;;;;;5010216;28;20046;-67
2022/10/21 02:04:59;;;;;;;1.77;0.52;;;;;;;;;;5009881;28;20069;-67
2022/10/21 02:07:29;;;;;;;2.47;0.68;;;;;;;;;;5010250;28;20061;-67
2022/10/21 02:09:59;;;;;;;1.88;0.68;;;;;;;;;;4977440;28;20058;-67
2022/10/21 02:12:32;;;;;;;1.00;0.50;;;;;;;;;;4993954;28;20054;-67
2022/10/21 02:15:07;;;;;;;0.95;0.50;;;;;;;;;;5009750;28;20075;-67
2022/10/21 02:17:41;;;;;;;1.00;0.60;;;;;;;;;;4969173;28;20595;-67
2022/10/21 02:20:14;;;;;;;2.00;0.52;;;;;;;;;;4990175;28;20050;-67
2022/10/21 02:22:46;;;;;;;2.42;0.68;;;;;;;;;;5014051;28;20496;-68
2022/10/21 02:25:23;;;;;;;3.13;0.60;;;;;;;;;;5089700;28;20063;-67
2022/10/21 02:27:54;;;;;;;4.72;1.15;;;;;;;;;;5089725;28;20055;-67
2022/10/21 02:30:25;;;;;;;2.63;1.15;;;;;;;;;;5055932;28;20052;-67
2022/10/21 02:33:07;;;;;;;2.40;1.35;;;;;;;;;;5057123;28;20048;-67
2022/10/21 02:36:12;;;;;;;3.88;1.10;;;;;;;;;;5039336;28;20426;-67
2022/10/21 02:38:58;;;;;;;5.85;1.13;;;;;;;;;;5089598;28;20435;-67
2022/10/21 02:41:29;;;;;;;3.50;1.42;;;;;;;;;;5089798;28;20044;-67
2022/10/21 02:44:02;;;;;;;2.55;1.23;;;;;;;;;;5089645;28;20527;-67
2022/10/21 02:46:51;;;;;;;2.28;0.90;;;;;;;;;;5007570;28;20063;-67
2022/10/21 02:49:22;;;;;;;2.60;1.10;;;;;;;;;;5089578;28;20076;-67
2022/10/21 02:51:52;;;;;;;2.53;1.17;;;;;;;;;;5055981;28;20048;-67
2022/10/21 02:54:22;;;;;;;3.00;0.93;;;;;;;;;;5089452;28;20048;-67
2022/10/21 02:56:52;;;;;;;4.63;1.10;;;;;;;;;;5060361;28;20508;-67
2022/10/21 02:59:22;;;;;;;3.72;1.20;;;;;;;;;;5116092;28;20054;-67
2022/10/21 03:01:52;;;;;;;3.30;1.30;;;;;;;;;;5116320;28;20035;-67
2022/10/21 03:04:22;;;;;;;3.17;1.13;;;;;;;;;;5116157;28;20479;-67
2022/10/21 03:06:52;;;;;;;3.15;1.10;;;;;;;;;;5116237;28;20051;-67
2022/10/21 03:09:22;;;;;;;2.85;1.10;;;;;;;;;;5115865;28;20480;-67
2022/10/21 03:11:53;;;;;;;2.78;1.23;;;;;;;;;;5116174;28;20047;-67
2022/10/21 03:14:23;;;;;;;2.47;1.25;;;;;;;;;;5116017;28;20039;-67
2022/10/21 03:16:53;;;;;;;8.82;1.15;;;;;;;;;;5115904;28;20502;-67
2022/10/21 03:19:24;;;;;;;3.33;0.90;;;;;;;;;;5115857;28;20047;-67
2022/10/21 03:21:53;;;;;;;2.10;1.00;;;;;;;;;;5115787;28;20051;-67
2022/10/21 03:24:24;;;;;;;1.90;1.25;;;;;;;;;;5115600;28;20066;-67
2022/10/21 03:26:57;;;;;;;1.73;1.30;;;;;;;;;;5092837;28;20048;-66
2022/10/21 03:29:27;;;;;;;3.50;1.00;;;;;;;;;;5042564;28;20436;-67
2022/10/21 03:31:57;;;;;;;3.47;1.00;;;;;;;;;;5059060;28;20063;-67
2022/10/21 03:34:26;;;;;;;1.58;0.90;;;;;;;;;;5092521;28;20059;-67
2022/10/21 03:36:57;;;;;;;3.72;1.00;;;;;;;;;;5092813;28;20056;-67
2022/10/21 03:39:26;;;;;;;4.05;1.02;;;;;;;;;;5092611;28;20052;-67
2022/10/21 03:41:57;;;;;;;4.97;1.00;;;;;;;;;;5032447;28;20421;-67
2022/10/21 03:44:26;;;;;;;2.13;0.90;;;;;;;;;;5032548;28;20486;-67
2022/10/21 03:46:56;;;;;;;2.05;0.82;;;;;;;;;;4973636;28;20449;-67
2022/10/21 03:49:26;;;;;;;1.92;0.77;;;;;;;;;;4957035;28;20422;-67
2022/10/21 03:51:56;;;;;;;2.47;0.93;;;;;;;;;;4973596;28;20059;-67
2022/10/21 03:54:26;;;;;;;3.40;0.82;;;;;;;;;;4957216;28;20066;-67
2022/10/21 03:56:55;;;;;;;2.05;1.02;;;;;;;;;;4973455;28;20050;-67
2022/10/21 03:59:25;;;;;;;2.33;0.95;;;;;;;;;;4973529;28;20058;-67
2022/10/21 04:01:55;;;;;;;4.90;1.08;;;;;;;;;;4941389;28;20058;-67
2022/10/21 04:04:25;;;;;;;3.60;1.10;;;;;;;;;;4974042;28;20069;-67
2022/10/21 04:06:55;;;;;;;1.70;0.95;;;;;;;;;;4979568;28;20069;-67
2022/10/21 04:09:25;;;;;;;6.80;1.13;;;;;;;;;;5011768;28;20484;-67
2022/10/21 04:11:55;;;;;;;3.03;1.02;;;;;;;;;;4979557;28;20054;-67
2022/10/21 04:14:25;;;;;;;2.75;1.35;;;;;;;;;;4963753;28;20379;-67
2022/10/21 04:16:55;;;;;;;2.55;1.02;;;;;;;;;;5011989;28;20069;-67
2022/10/21 04:19:35;;;;;;;3.38;1.38;;;;;;;;;;5043569;28;20055;-67
2022/10/21 04:22:05;;;;;;;4.00;0.90;;;;;;;;;;5031807;28;20072;-66
2022/10/21 04:24:35;;;;;;;3.83;1.13;;;;;;;;;;5062904;28;20052;-66
2022/10/21 04:27:04;;;;;;;2.95;1.38;;;;;;;;;;5074842;28;20598;-66
2022/10/21 04:29:34;;;;;;;4.75;1.27;;;;;;;;;;5074909;28;20048;-67
2022/10/21 04:32:05;;;;;;;2.20;1.13;;;;;;;;;;5041386;28;20060;-67
2022/10/21 04:34:35;;;;;;;3.38;1.35;;;;;;;;;;5091731;28;20162;-67
2022/10/21 04:37:05;;;;;;;2.83;1.13;;;;;;;;;;5075116;28;20063;-66
2022/10/21 04:39:35;;;;;;;4.18;0.90;;;;;;;;;;5057956;28;20063;-67
2022/10/21 04:42:05;;;;;;;5.25;1.33;;;;;;;;;;5091572;28;20063;-67
2022/10/21 04:44:38;;;;;;;2.83;1.38;;;;;;;;;;5075166;28;20048;-66
2022/10/21 04:47:09;;;;;;;4.05;1.50;;;;;;;;;;5054347;28;20049;-66
2022/10/21 04:49:38;;;;;;;2.42;1.20;;;;;;;;;;5071188;28;20428;-66
2022/10/21 04:52:08;;;;;;;4.32;0.98;;;;;;;;;;5070982;28;20052;-67
2022/10/21 04:54:38;;;;;;;6.63;1.38;;;;;;;;;;5071168;28;20040;-67
2022/10/21 04:57:08;;;;;;;7.90;1.55;;;;;;;;;;5037514;28;20440;-67
2022/10/21 04:59:38;;;;;;;2.85;1.40;;;;;;;;;;5026759;28;20048;-67
2022/10/21 05:02:08;;;;;;;5.10;1.55;;;;;;;;;;5070946;28;20061;-67
2022/10/21 05:04:38;;;;;;;4.43;1.58;;;;;;;;;;5037464;28;20056;-66
2022/10/21 05:07:08;;;;;;;4.97;1.10;;;;;;;;;;5070854;28;20053;-66
2022/10/21 05:09:38;;;;;;;6.18;1.27;;;;;;;;;;5070882;28;20045;-67
2022/10/21 05:12:08;;;;;;;7.05;1.30;;;;;;;;;;5037204;28;20056;-67
2022/10/21 05:14:38;;;;;;;2.38;1.20;;;;;;;;;;5070641;28;20492;-66
2022/10/21 05:17:08;;;;;;;3.67;1.52;;;;;;;;;;5020464;28;20048;-67
2022/10/21 05:19:38;;;;;;;4.55;1.33;;;;;;;;;;5070685;28;20051;-66
2022/10/21 05:22:08;;;;;;;3.97;1.30;;;;;;;;;;5070682;28;20405;-67
2022/10/21 05:24:37;;;;;;;2.92;1.42;;;;;;;;;;5079595;28;20052;-67
2022/10/21 05:27:08;;;;;;;4.78;1.38;;;;;;;;;;5090605;28;20070;-67
2022/10/21 05:29:37;;;;;;;3.28;1.70;;;;;;;;;;5074131;28;20059;-67
2022/10/21 05:32:07;;;;;;;3.78;1.60;;;;;;;;;;5090504;28;20043;-68
2022/10/21 05:34:37;;;;;;;3.08;1.30;;;;;;;;;;5057024;28;20052;-68
2022/10/21 05:37:07;;;;;;;3.80;1.55;;;;;;;;;;5044543;28;20515;-68
2022/10/21 05:39:37;;;;;;;3.88;1.35;;;;;;;;;;5113080;28;20046;-68
2022/10/21 05:42:09;;;;;;;2.78;1.33;;;;;;;;;;5113307;28;20039;-68
2022/10/21 05:44:39;;;;;;;8.48;1.45;;;;;;;;;;5113402;28;20110;-67
2022/10/21 05:47:08;;;;;;;8.88;1.75;;;;;;;;;;5077479;28;20052;-67
2022/10/21 05:49:38;;;;;;;4.47;1.63;;;;;;;;;;5112856;28;20059;-67
2022/10/21 05:52:08;;;;;;;5.93;1.58;;;;;;;;;;5060153;28;20510;-67
2022/10/21 05:54:38;;;;;;;4.97;1.38;;;;;;;;;;5077358;28;20055;-67
2022/10/21 05:57:09;;;;;;;8.35;1.60;;;;;;;;;;5113066;28;20406;-67
2022/10/21 05:59:38;;;;;;;3.05;1.70;;;;;;;;;;5112992;28;20052;-67
2022/10/21 06:02:09;;;;;;;5.78;1.80;;;;;;;;;;5112676;28;20044;-68
2022/10/21 06:04:39;;;;;;;3.20;1.45;;;;;;;;;;5093582;28;20430;-68
2022/10/21 06:07:10;;;;;;;2.95;1.48;;;;;;;;;;5112915;28;20036;-68
2022/10/21 06:09:40;;;;;;;4.07;1.70;;;;;;;;;;5112572;28;20402;-68
2022/10/21 06:12:10;;;;;;;3.35;1.52;;;;;;;;;;5112650;28;20059;-68
2022/10/21 06:14:39;;;;;;;5.40;1.67;;;;;;;;;;5112532;28;20066;-68
2022/10/21 06:17:09;;;;;;;5.55;1.75;;;;;;;;;;5089643;28;20063;-68
2022/10/21 06:19:39;;;;;;;4.68;1.90;;;;;;;;;;5072953;28;20066;-68
2022/10/21 06:22:09;;;;;;;4.00;1.52;;;;;;;;;;5089971;28;20060;-68
2022/10/21 06:24:39;;;;;;;5.30;1.38;;;;;;;;;;5056105;28;20754;-67
2022/10/21 06:27:09;;;;;;;3.53;1.60;;;;;;;;;;5052629;28;20048;-68
2022/10/21 06:29:39;;;;;;;3.63;1.90;;;;;;;;;;5020672;28;20060;-68
2022/10/21 06:32:09;;;;;;;3.80;1.77;;;;;;;;;;5009283;28;20058;-68
2022/10/21 06:34:39;;;;;;;4.38;1.90;;;;;;;;;;5009718;28;20517;-68
2022/10/21 06:37:09;;;;;;;4.93;1.77;;;;;;;;;;4993445;28;20058;-68
2022/10/21 06:39:39;;;;;;;3.97;1.73;;;;;;;;;;4977096;28;20064;-68
2022/10/21 06:42:09;;;;;;;6.78;1.77;;;;;;;;;;5009708;28;20062;-68
2022/10/21 06:44:43;;;;;;;5.63;2.22;;;;;;;;;;5009703;28;20391;-68
2022/10/21 06:47:13;;;;;;;8.20;1.98;;;;;;;;;;5010011;28;20046;-68
2022/10/21 06:49:43;;;;;;;3.95;1.65;;;;;;;;;;4977841;28;20066;-68
2022/10/21 06:52:13;;;;;;;5.85;1.83;;;;;;;;;;4993277;28;20061;-68
2022/10/21 06:54:43;;;;;;;4.88;1.77;;;;;;;;;;5019192;28;20057;-67
2022/10/21 06:57:13;;;;;;;6.05;1.67;;;;;;;;;;5029445;28;20069;-67
2022/10/21 06:59:43;;;;;;;3.47;1.73;;;;;;;;;;5029608;28;20049;-67
2022/10/21 07:02:13;;;;;;;4.75;1.73;;;;;;;;;;4990022;28;20078;-67
2022/10/21 07:04:44;;;;;;;6.15;1.85;;;;;;;;;;5008105;28;20065;-67
2022/10/21 07:07:15;;;;;;;4.20;1.90;;;;;;;;;;5029223;28;20417;-67
2022/10/21 07:09:46;;;;;;;4.03;2.00;;;;;;;;;;5029167;28;20543;-67
2022/10/21 07:12:16;;;;;;;6.80;1.95;;;;;;;;;;5055793;28;20064;-67
2022/10/21 07:14:47;;;;;;;3.38;1.98;;;;;;;;;;5089171;28;20059;-67
2022/10/21 07:17:17;;;;;;;4.97;2.30;;;;;;;;;;5089077;28;20528;-67
2022/10/21 07:19:48;;;;;;;5.90;2.22;;;;;;;;;;5055618;28;20066;-67
2022/10/21 07:22:17;;;;;;;4.07;1.83;;;;;;;;;;5089344;28;20051;-67
2022/10/21 07:24:48;;;;;;;5.43;2.05;;;;;;;;;;5006687;28;20052;-67
2022/10/21 07:27:19;;;;;;;6.85;1.80;;;;;;;;;;5055556;28;20067;-67
2022/10/21 07:29:49;;;;;;;3.15;1.83;;;;;;;;;;5089181;28;20135;-67
2022/10/21 07:32:20;;;;;;;4.00;1.83;;;;;;;;;;5055705;28;20093;-67
2022/10/21 07:34:51;;;;;;;3.22;1.80;;;;;;;;;;5089126;28;20044;-67
2022/10/21 07:37:21;;;;;;;4.47;1.83;;;;;;;;;;5072847;28;20052;-67
2022/10/21 07:39:53;;;;;;;4.43;2.08;;;;;;;;;;5100645;28;20056;-67
2022/10/21 07:42:23;;;;;;;4.18;1.63;;;;;;;;;;5111719;28;20051;-67
2022/10/21 07:44:58;;;;;;;2.80;1.63;;;;;;;;;;5115529;28;20062;-67
2022/10/21 07:47:28;;;;;;;5.65;1.52;;;;;;;;;;5115683;28;20044;-67
2022/10/21 07:49:59;;;;;;;5.40;2.13;;;;;;;;;;5062993;28;20055;-67
2022/10/21 07:52:28;;;;;;;3.30;1.85;;;;;;;;;;5115325;28;20055;-67
2022/10/21 07:55:05;;;;;;;2.70;1.52;;;;;;;;;;5115023;28;20396;-67
2022/10/21 07:57:35;;;;;;;5.68;1.83;;;;;;;;;;5115123;28;20046;-67
2022/10/21 08:00:07;;;;;;;3.88;1.73;;;;;;;;;;5079283;28;20063;-67
2022/10/21 08:02:41;;;;;;;4.95;1.90;;;;;;;;;;5080165;28;20117;-67
2022/10/21 08:05:10;;;;;;;4.47;1.92;;;;;;;;;;5071791;28;20056;-67
2022/10/21 08:07:41;;;;;;;4.20;1.88;;;;;;;;;;5072111;28;20056;-67
2022/10/21 08:10:11;;;;;;;6.50;2.20;;;;;;;;;;5072234;28;20500;-67
2022/10/21 08:12:41;;;;;;;4.60;1.73;;;;;;;;;;5071942;28;20511;-67
2022/10/21 08:15:10;;;;;;;3.22;1.73;;;;;;;;;;5051474;28;20145;-66
2022/10/21 08:17:40;;;;;;;3.97;1.90;;;;;;;;;;5035349;28;20417;-67
2022/10/21 08:20:11;;;;;;;4.05;1.85;;;;;;;;;;5051782;28;20068;-67
2022/10/21 08:22:41;;;;;;;8.10;1.92;;;;;;;;;;5001865;28;20053;-67
2022/10/21 08:25:15;;;;;;;4.07;1.83;;;;;;;;;;5051642;28;20056;-67
2022/10/21 08:27:45;;;;;;;5.35;1.52;;;;;;;;;;5018341;28;20068;-67
2022/10/21 08:30:15;;;;;;;3.88;1.98;;;;;;;;;;5051510;28;20084;-67
2022/10/21 08:32:46;;;;;;;9.43;2.00;;;;;;;;;;5051604;28;20057;-67
2022/10/21 08:35:16;;;;;;;5.75;1.67;;;;;;;;;;5054760;28;20045;-67
2022/10/21 08:37:47;;;;;;;2.85;1.63;;;;;;;;;;5091640;28;20135;-67
2022/10/21 08:40:18;;;;;;;5.97;2.15;;;;;;;;;;5091761;28;20056;-67
2022/10/21 08:42:49;;;;;;;5.80;1.77;;;;;;;;;;5091386;28;20047;-67
2022/10/21 08:45:36;;;;;;;4.40;1.92;;;;;;;;;;5058973;28;20060;-67
2022/10/21 08:48:13;;;;;;;6.65;1.95;;;;;;;;;;5074474;28;20048;-66
2022/10/21 08:50:49;;;;;;;3.75;1.73;;;;;;;;;;5057512;28;20056;-67
2022/10/21 08:53:46;;;;;;;5.28;1.90;;;;;;;;;;5107500;28;20056;-67
2022/10/21 08:56:17;;;;;;;7.10;1.63;;;;;;;;;;5077935;28;20052;-67
2022/10/21 08:58:51;;;;;;;4.47;1.35;;;;;;;;;;5114009;28;20046;-67
2022/10/21 09:01:35;;;;;;;5.25;1.80;;;;;;;;;;5094837;28;20074;-67
2022/10/21 09:04:43;;;;;;;8.25;1.70;;;;;;;;;;5113661;28;20047;-67
2022/10/21 09:07:20;;;;;;;4.63;1.70;;;;;;;;;;5030997;28;20057;-67
2022/10/21 09:10:14;;;;;;;4.47;1.63;;;;;;;;;;5030778;28;20057;-67
2022/10/21 09:12:50;;;;;;;4.55;1.70;;;;;;;;;;5030900;28;20045;-67
2022/10/21 09:15:55;;;;;;;4.22;1.80;;;;;;;;;;5030639;28;20057;-66
2022/10/21 09:19:01;;;;;;;3.80;1.23;;;;;;;;;;4959191;28;20070;-67
2022/10/21 09:21:58;;;;;;;3.80;1.75;;;;;;;;;;4914422;29;20104;-67
2022/10/21 09:24:53;;;;;;;8.32;2.08;;;;;;;;;;4914295;29;20542;-67
2022/10/21 09:27:24;;;;;;;4.38;1.42;;;;;;;;;;4914223;29;20055;-67
2022/10/21 09:30:07;;;;;;;3.17;1.83;;;;;;;;;;4883098;29;20052;-67
2022/10/21 09:32:39;;;;;;;4.10;2.13;;;;;;;;;;4952340;29;20047;-67
2022/10/21 09:35:37;;;;;;;5.88;1.75;;;;;;;;;;4952295;29;20062;-67
2022/10/21 09:38:28;;;;;;;3.80;1.77;;;;;;;;;;4952302;29;20549;-67
2022/10/21 09:41:02;;;;;;;3.47;1.60;;;;;;;;;;4952353;29;20055;-67
2022/10/21 09:43:32;;;;;;;4.03;1.50;;;;;;;;;;4997802;28;20054;-67
2022/10/21 09:46:03;;;;;;;3.95;1.65;;;;;;;;;;5010567;28;20058;-67
2022/10/21 09:48:56;;;;;;;7.50;1.73;;;;;;;;;;5010481;28;20069;-67
2022/10/21 09:51:47;;;;;;;6.13;1.75;;;;;;;;;;5010161;28;20065;-67
2022/10/21 09:54:21;;;;;;;3.35;1.75;;;;;;;;;;5021738;28;20057;-67
2022/10/21 09:57:04;;;;;;;4.72;1.75;;;;;;;;;;5030001;28;20094;-67
2022/10/21 09:59:36;;;;;;;7.13;2.20;;;;;;;;;;5080013;28;20059;-67
2022/10/21 10:02:14;;;;;;;4.30;2.40;;;;;;;;;;5090323;28;20518;-67
2022/10/21 10:04:44;;;;;;;5.05;1.83;;;;;;;;;;5110319;28;20055;-67
2022/10/21 10:07:28;;;;;;;4.40;2.05;;;;;;;;;;5077198;28;20064;-67
2022/10/21 10:09:59;;;;;;;4.88;2.30;;;;;;;;;;5011008;28;20076;-67
2022/10/21 10:12:29;;;;;;;3.90;1.83;;;;;;;;;;5076749;28;20502;-67
2022/10/21 10:15:24;;;;;;;4.55;1.98;;;;;;;;;;5112453;28;20050;-67
2022/10/21 10:18:00;;;;;;;4.10;1.88;;;;;;;;;;5076643;28;20069;-67
2022/10/21 10:20:30;;;;;;;2.97;1.63;;;;;;;;;;5112515;28;20059;-67
2022/10/21 10:23:00;;;;;;;4.13;1.90;;;;;;;;;;5112403;28;20043;-67
2022/10/21 10:25:36;;;;;;;2.65;1.63;;;;;;;;;;5112571;28;20050;-67
2022/10/21 10:28:09;;;;;;;3.58;2.00;;;;;;;;;;5076766;28;20047;-67
2022/10/21 10:30:42;;;;;;;5.95;1.95;;;;;;;;;;5093923;28;20522;-67
2022/10/21 10:33:29;;;;;;;2.88;1.42;;;;;;;;;;5060326;28;20052;-67
2022/10/21 10:36:02;;;;;;;4.57;1.67;;;;;;;;;;5093453;28;20063;-67
2022/10/21 10:38:51;;;;;;;3.97;1.75;;;;;;;;;;5112361;28;20043;-67
2022/10/21 10:41:30;;;;;;;2.58;1.30;;;;;;;;;;5036603;28;20052;-67
2022/10/21 10:44:07;;;;;;;2.67;1.20;;;;;;;;;;5019864;28;20056;-67
2022/10/21 10:46:39;;;;;;;3.25;1.40;;;;;;;;;;5053364;28;20060;-68
2022/10/21 10:49:13;;;;;;;3.05;1.45;;;;;;;;;;5019842;28;20060;-66
2022/10/21 10:51:46;;;;;;;2.25;1.10;;;;;;;;;;5069650;28;20040;-67
2022/10/21 10:54:18;;;;;;;3.13;1.05;;;;;;;;;;5069175;28;20059;-69
2022/10/21 10:56:52;;;;;;;2.55;0.85;;;;;;;;;;5069388;28;20052;-69
2022/10/21 10:59:58;;;;;;;2.25;1.00;;;;;;;;;;5069351;28;20052;-69
2022/10/21 11:02:46;;;;;;;0.93;0.57;;;;;;;;;;4970259;28;20073;-68
2022/10/21 11:05:24;;;;;;;1.15;0.63;;;;;;;;;;4970321;28;20078;-69
2022/10/21 11:08:04;;;;;;;1.95;0.90;;;;;;;;;;4938669;28;20062;-68
2022/10/21 11:10:47;;;;;;;1.48;0.80;;;;;;;;;;4970755;28;20058;-69
2022/10/21 11:13:21;;;;;;;1.63;0.98;;;;;;;;;;4970622;28;20066;-68
2022/10/21 11:16:10;;;;;;;1.10;0.60;;;;;;;;;;4970226;28;20055;-69
2022/10/21 11:19:01;;;;;;;1.60;0.60;;;;;;;;;;4988163;28;20053;-69
2022/10/21 11:21:54;;;;;;;2.80;0.57;;;;;;;;;;5013236;28;20493;-69
2022/10/21 11:25:03;;;;;;;1.45;0.68;;;;;;;;;;5013028;28;20053;-69
2022/10/21 11:27:55;;;;;;;4.88;0.60;;;;;;;;;;5032441;28;20397;-69
2022/10/21 11:30:35;;;;;;;1.77;0.73;;;;;;;;;;4983799;28;20065;-70
2022/10/21 11:33:15;;;;;;;2.25;0.65;;;;;;;;;;5016678;28;20053;-70
2022/10/21 11:36:08;;;;;;;1.27;0.65;;;;;;;;;;4999703;28;20153;-69
2022/10/21 11:38:56;;;;;;;1.30;0.63;;;;;;;;;;4944098;28;20511;-68
2022/10/21 11:41:35;;;;;;;1.10;0.57;;;;;;;;;;5012968;28;20114;-70
2022/10/21 11:44:27;;;;;;;2.40;0.52;;;;;;;;;;5012438;28;20053;-69
2022/10/21 11:47:18;;;;;;;1.00;0.43;;;;;;;;;;5012903;28;20182;-68
2022/10/21 11:50:16;;;;;;;1.50;0.50;;;;;;;;;;5012759;28;20091;-69
2022/10/21 11:53:15;;;;;;;0.80;0.40;;;;;;;;;;4965840;28;20046;-68
2022/10/21 11:55:55;;;;;;;0.95;0.50;;;;;;;;;;5012691;28;20058;-68
2022/10/21 11:58:48;;;;;;;0.77;0.32;;;;;;;;;;4996342;28;20058;-68
2022/10/21 12:01:56;;;;;;;1.40;0.80;;;;;;;;;;5012400;28;20081;-67
2022/10/21 12:04:37;;;;;;;0.40;0.40;;;;;;;;;;5000168;28;20528;-67
2022/10/21 12:07:07;;;;;;;0.50;0.20;;;;;;;;;;5032177;28;20057;-68
2022/10/21 12:09:51;;;;;;;2.90;0.30;;;;;;;;;;5031820;28;20057;-67
2022/10/21 12:12:33;;;;;;;0.35;0.30;;;;;;;;;;5032092;28;20041;-67
2022/10/21 12:15:14;;;;;;;0.40;0.40;;;;;;;;;;5045822;28;20051;-67
2022/10/21 12:17:46;;;;;;;0.40;0.30;;;;;;;;;;5078818;28;20047;-67
2022/10/21 12:20:21;;;;;;;0.80;0.30;;;;;;;;;;5078872;28;20052;-68
2022/10/21 12:23:04;;;;;;;0.55;0.32;;;;;;;;;;5112511;28;20059;-67
2022/10/21 12:25:44;;;;;;;0.30;0.25;;;;;;;;;;5114713;28;20042;-67
2022/10/21 12:28:35;;;;;;;2.83;0.20;;;;;;;;;;5078229;28;20503;-67
2022/10/21 12:31:28;;;;;;;0.50;0.25;;;;;;;;;;5114713;28;20043;-67
2022/10/21 12:33:58;;;;;;;0.73;0.30;;;;;;;;;;5051632;28;20079;-68
2022/10/21 12:36:52;;;;;;;0.30;0.20;;;;;;;;;;5018134;28;20053;-67
2022/10/21 12:39:34;;;;;;;0.77;0.50;;;;;;;;;;5051508;28;20053;-68
2022/10/21 12:42:13;;;;;;;0.40;0.40;;;;;;;;;;4991952;28;20534;-67
2022/10/21 12:44:49;;;;;;;2.28;0.32;;;;;;;;;;4991879;28;20073;-66
2022/10/21 12:47:52;;;;;;;0.93;0.32;;;;;;;;;;4992043;28;20077;-67
2022/10/21 12:50:32;;;;;;;0.50;0.30;;;;;;;;;;4953201;28;20055;-67
2022/10/21 12:53:48;;;;;;;0.40;0.20;;;;;;;;;;4933750;29;20058;-67
2022/10/21 12:56:49;;;;;;;0.77;0.30;;;;;;;;;;4914786;29;20420;-66
2022/10/21 12:59:31;;;;;;;5.40;0.30;;;;;;;;;;4877272;29;20410;-66
2022/10/21 13:02:07;;;;;;;0.50;0.32;;;;;;;;;;4877291;29;20049;-66
2022/10/21 13:04:36;;;;;;;1.02;0.35;;;;;;;;;;4876777;29;20498;-66
2022/10/21 13:07:15;;;;;;;0.35;0.35;;;;;;;;;;4877106;29;20061;-67
2022/10/21 13:09:55;;;;;;;0.93;0.40;;;;;;;;;;4877218;29;20524;-67
2022/10/21 13:12:27;;;;;;;0.90;0.32;;;;;;;;;;4917544;29;20165;-67
2022/10/21 13:15:19;;;;;;;0.68;0.20;;;;;;;;;;4933165;29;20507;-67
2022/10/21 13:17:54;;;;;;;0.63;0.35;;;;;;;;;;4933318;29;20059;-67
2022/10/21 13:20:26;;;;;;;1.70;0.50;;;;;;;;;;4946971;29;20059;-66
2022/10/21 13:23:30;;;;;;;1.13;0.32;;;;;;;;;;4917353;29;20048;-68
2022/10/21 13:26:15;;;;;;;0.93;0.22;;;;;;;;;;4933482;29;20066;-67
2022/10/21 13:29:34;;;;;;;0.35;0.25;;;;;;;;;;4933367;29;20134;-68
2022/10/21 13:32:16;;;;;;;0.45;0.35;;;;;;;;;;4859915;29;20557;-68
2022/10/21 13:34:55;;;;;;;0.52;0.32;;;;;;;;;;4876725;29;20049;-68
2022/10/21 13:37:41;;;;;;;0.55;0.35;;;;;;;;;;4952309;29;20157;-67
2022/10/21 13:40:18;;;;;;;0.65;0.38;;;;;;;;;;4966077;28;20055;-66
2022/10/21 13:43:01;;;;;;;0.63;0.50;;;;;;;;;;4952261;29;20063;-67
2022/10/21 13:45:46;;;;;;;0.75;0.45;;;;;;;;;;4952175;29;20051;-67
2022/10/21 13:48:19;;;;;;;1.30;0.30;;;;;;;;;;4952238;29;20468;-67
2022/10/21 13:50:51;;;;;;;0.50;0.50;;;;;;;;;;4951800;29;20051;-66
2022/10/21 13:53:27;;;;;;;0.57;0.38;;;;;;;;;;4936303;29;20048;-67
2022/10/21 13:56:00;;;;;;;0.80;0.47;;;;;;;;;;4952001;29;20110;-67
2022/10/21 13:58:37;;;;;;;0.77;0.50;;;;;;;;;;4950834;29;20054;-67
2022/10/21 14:01:14;;;;;;;1.10;0.90;;;;;;;;;;4951631;29;20063;-67
2022/10/21 14:03:45;;;;;;;1.10;0.50;;;;;;;;;;4951345;29;20408;-66
2022/10/21 14:06:34;;;;;;;0.60;0.40;;;;;;;;;;4932122;29;20059;-67
2022/10/21 14:09:08;;;;;;;2.25;0.50;;;;;;;;;;5012268;28;20060;-70
2022/10/21 14:11:47;;;;;;;1.05;0.57;;;;;;;;;;5069492;28;20059;-67
2022/10/21 14:14:21;;;;;;;0.90;0.50;;;;;;;;;;5020131;28;20123;-67
2022/10/21 14:16:58;;;;;;;0.63;0.45;;;;;;;;;;5069403;28;20057;-67
2022/10/21 14:19:35;;;;;;;0.82;0.38;;;;;;;;;;5069477;28;20512;-67
2022/10/21 14:22:09;;;;;;;0.90;0.50;;;;;;;;;;5069588;28;20152;-66
2022/10/21 14:24:45;;;;;;;0.60;0.50;;;;;;;;;;5069339;28;20084;-67
2022/10/21 14:27:22;;;;;;;0.75;0.47;;;;;;;;;;5069379;28;20045;-67
2022/10/21 14:29:53;;;;;;;1.95;0.50;;;;;;;;;;5069357;28;20420;-66
2022/10/21 14:32:25;;;;;;;2.17;0.50;;;;;;;;;;5069454;28;20059;-67
2022/10/21 14:35:10;;;;;;;0.93;0.52;;;;;;;;;;5049087;28;20060;-67
2022/10/21 14:37:57;;;;;;;1.90;0.43;;;;;;;;;;5049189;28;20061;-67
2022/10/21 14:40:40;;;;;;;0.57;0.40;;;;;;;;;;5049315;28;20053;-67
2022/10/21 14:43:17;;;;;;;0.85;0.30;;;;;;;;;;5003737;28;20524;-67
2022/10/21 14:45:52;;;;;;;2.22;0.47;;;;;;;;;;5069125;28;20044;-68
2022/10/21 14:48:27;;;;;;;0.50;0.30;;;;;;;;;;5052890;28;20082;-66
2022/10/21 14:51:00;;;;;;;3.47;0.65;;;;;;;;;;5069391;28;20045;-69
2022/10/21 14:53:35;;;;;;;0.95;0.63;;;;;;;;;;5072368;28;20040;-67
2022/10/21 14:56:11;;;;;;;2.10;0.52;;;;;;;;;;5073099;28;20093;-67
2022/10/21 14:58:44;;;;;;;0.82;0.50;;;;;;;;;;5052782;28;20419;-67
2022/10/21 15:01:18;;;;;;;2.78;0.55;;;;;;;;;;5043288;28;20048;-67
2022/10/21 15:03:52;;;;;;;1.13;0.73;;;;;;;;;;5093294;28;20059;-66
2022/10/21 15:06:25;;;;;;;3.08;0.52;;;;;;;;;;5094586;28;20059;-68
2022/10/21 15:09:17;;;;;;;0.73;0.45;;;;;;;;;;5095800;28;20047;-67
2022/10/21 15:11:47;;;;;;;0.68;0.35;;;;;;;;;;5095456;28;20048;-66
2022/10/21 15:14:30;;;;;;;0.45;0.32;;;;;;;;;;5094748;28;20047;-66
2022/10/21 15:17:08;;;;;;;0.90;0.45;;;;;;;;;;5095676;28;20051;-67
2022/10/21 15:19:44;;;;;;;1.15;1.05;;;;;;;;;;5095240;28;20051;-66
2022/10/21 15:22:28;;;;;;;0.50;0.47;;;;;;;;;;5076408;28;20055;-67
2022/10/21 15:25:05;;;;;;;0.60;0.45;;;;;;;;;;5076637;28;20411;-66
2022/10/21 15:27:41;;;;;;;0.88;0.32;;;;;;;;;;5043251;28;20079;-66
2022/10/21 15:30:16;;;;;;;0.40;0.40;;;;;;;;;;5095220;28;20039;-66
2022/10/21 15:32:47;;;;;;;0.40;0.30;;;;;;;;;;5095416;28;20043;-67
2022/10/21 15:35:21;;;;;;;0.20;0.20;;;;;;;;;;5095231;28;20387;-66
2022/10/21 15:37:53;;;;;;;0.50;0.30;;;;;;;;;;5095145;28;20051;-67